Rindge, NH (03461)

11:40 AM EDT on July 31, 2015 (GMT -0400)
Town Pines | | Change Station
CLOSE
Current Station
Personal Weather Station
Location: Rindge, NH
Elevation: 1302 ft
Nearby Weather Stations

Elev 1302 ft 42.74 °N, 72.03 °W | Updated 1 minute ago

Partly Cloudy
Partly Cloudy
77.9 °F
Feels Like 77 °F
N
3.1
Wind Variable Wind from South
Gusts 6.3 mph

Today
High -- | Low -- °F
--% Chance of Precip.
Yesterday
High -- | Low -- °F
Precip. -- in
5:38 AM 8:10 PM
Full, 100% visible
Pressure 29.84 in
Visibility 10.0 miles
Clouds Few 3800 ft
Scattered Clouds 4500 ft
Heat Index 77 °F
Dew Point 32 °F
Humidity 13%
Rainfall -999.00 in
Snow Depth Not available.
UV 7 out of 12
Pollen 4.70 out of 12
Air Quality Not available.
Flu Activity Not available.
METAR KAFN 311452Z AUTO 23007KT 190V290 10SM FEW038 SCT045 24/16 A2985 RMK AO2 SLP105 T02440156 55001

More Conditions Fewer Conditions

Pressure 29.84 in
Visibility 10.0 miles
Clouds Few 3800 ft
Scattered Clouds 4500 ft
Heat Index 77 °F
Dew Point 32 °F
Humidity 13%
Rainfall -999.00 in
Snow Depth Not available.
UV 7 out of 12
Pollen 4.70 out of 12
Air Quality Not available.
Flu Activity Not available.
METAR KAFN 311452Z AUTO 23007KT 190V290 10SM FEW038 SCT045 24/16 A2985 RMK AO2 SLP105 T02440156 55001

More Conditions Fewer Conditions

10-Day Weather Forecast

×

Almanac

Astronomy

Jul. 31, 2015 Rise Set
Actual Time
Civil Twilight
Nautical Twilight
Astronomical Twilight
Moon
Length of Visible Light
Length of Day
Tomorrow will be .
, % of the Moon is Illuminated

Today's Extremes

State Highs State Lows

Community

WunderPhotos

Upload Photos

1,842,669 photos uploaded!

WunderBlogs® & News

Nearby

Air Quality

  Air Quality AQ Index Pollutant
Not available.

Snow Depth

Station Depth Elevation

Earthquake Activity

City Distance Mag. Time & Date
Minimum magnitude displayed is 2.5.

Coastal Water Temperatures

Place Temperature

Stations

Nearby Weather Stations

Station Location Temp. Windchill Dew Point Humidity Wind Precip. Elev Updated Type